Last 7 Days

Abernathy 3

Hourly Data | America/Los_Angeles
as of 12/1/21 1:49 AM PST
Date & Time Temp (°F) RH (%) Dew Pt (°F) Wind Spd (mph) Wind Dir (°) Wind Gust (mph) Wind Gst Dir (°) Latest Rain (In) Daily Rain (In) Daily Min Temp (°F) Daily Max Temp (°F)
12/1/21 - 0100 44.9 98 44.4 1.0 ESE | 123 5.4 E | 96 0.00 0.00 43.8 46.4
12/1/21 - 0000 45.8 98 45.4 1.3 NNW | 345 6.4 ENE | 71 0.00 0.00 37.6 68.2
11/30/21 - 2300 47.6 98 46.9 0.9 NW | 323 4.1 NW | 319 0.00 0.00 37.6 68.2
11/30/21 - 2200 48.5 98 47.9 2.5 NW | 312 5.4 NW | 311 0.00 0.00 37.6 68.2
11/30/21 - 2100 48.4 97 47.7 2.1 SW | 215 5.1 WSW | 238 0.00 0.00 37.6 68.2
11/30/21 - 2000 48.2 95 46.7 0.6 SSW | 204 3.4 SSW | 204 0.00 0.00 37.6 68.2
11/30/21 - 1900 49.4 92 47.2 0.6 SSW | 204 2.7 SSW | 204 0.00 0.00 37.6 68.2
11/30/21 - 1800 53.4 85 49.0 0.6 SSW | 193 2.4 SSW | 204 0.00 0.00 37.6 68.2
11/30/21 - 1700 62.0 69 51.9 1.5 S | 182 4.8 S | 172 0.00 0.00 37.6 68.2
11/30/21 - 1600 66.4 59 51.5 3.9 S | 190 6.8 S | 184 0.00 0.00 37.6 68.2
11/30/21 - 1500 67.8 54 50.8 3.7 SSW | 196 6.8 SSW | 199 0.00 0.00 37.6 68.2
11/30/21 - 1400 67.0 56 50.9 3.6 SSW | 207 7.1 SSW | 200 0.00 0.00 37.6 67.9
11/30/21 - 1300 66.2 59 51.5 1.7 W | 276 5.4 WSW | 256 0.00 0.00 37.6 67.8
11/30/21 - 1200 63.5 64 51.2 2.3 NW | 308 5.1 WNW | 288 0.00 0.00 37.6 65.1
11/30/21 - 1100 61.2 72 52.0 1.6 WNW | 295 5.1 WNW | 288 0.00 0.00 37.6 62.2
11/30/21 - 1000 56.5 89 53.3 0.5 NW | 306 2.4 NW | 306 0.00 0.00 37.6 59.9
11/30/21 - 0900 48.8 100 48.8 0.4 NW | 306 2.4 NW | 306 0.00 0.00 37.6 52.6
11/30/21 - 0800 39.9 100 39.8 0.5 NW | 306 2.1 NW | 305 0.00 0.00 37.6 48.3
11/30/21 - 0700 39.7 100 39.6 0.4 NW | 306 2.1 NW | 306 0.00 0.00 38.0 48.3
11/30/21 - 0600 40.7 100 40.6 0.9 WNW | 302 3.4 WNW | 294 0.00 0.00 39.0 48.3
11/30/21 - 0500 41.1 100 41.0 0.5 WNW | 302 3.1 WNW | 303 0.00 0.00 40.0 48.3
11/30/21 - 0400 43.6 100 43.6 0.6 WNW | 302 2.7 WNW | 303 0.00 0.00 41.6 48.3
11/30/21 - 0300 45.6 100 45.5 0.6 WNW | 302 3.1 WNW | 302 0.00 0.00 44.2 48.3
11/30/21 - 0200 45.4 100 45.3 0.7 WNW | 300 3.4 WNW | 300 0.00 0.00 44.7 48.3
11/30/21 - 0100 47.6 99 47.4 0.8 WNW | 299 4.8 WNW | 302 0.00 0.00 46.4 48.3
11/30/21 - 0000 48.9 99 48.8 1.6 W | 276 4.1 SW | 229 0.00 0.00 40.8 68.8
11/29/21 - 2300 48.3 99 48.1 1.8 SW | 229 4.1 SW | 229 0.00 0.00 40.8 68.8
11/29/21 - 2200 49.0 99 48.6 1.4 SW | 227 4.1 SW | 227 0.00 0.00 40.8 68.8
11/29/21 - 2100 49.6 98 49.1 1.0 SW | 218 3.8 SW | 218 0.00 0.00 40.8 68.8
11/29/21 - 2000 49.8 95 48.6 0.7 SW | 217 3.1 SW | 218 0.00 0.00 40.8 68.8
11/29/21 - 1900 51.4 93 49.4 0.4 SW | 217 0.4 SW | 217 0.00 0.00 40.8 68.8
11/29/21 - 1800 55.5 85 51.2 0.6 SSW | 207 2.7 SW | 218 0.00 0.00 40.8 68.8
11/29/21 - 1700 63.4 71 54.0 1.8 S | 184 4.1 S | 183 0.00 0.00 40.8 68.8
11/29/21 - 1600 68.0 63 54.8 2.9 SSW | 201 5.8 S | 181 0.00 0.00 40.8 68.8
11/29/21 - 1500 68.2 62 54.7 3.6 S | 189 6.1 SSW | 207 0.00 0.00 40.8 68.8
11/29/21 - 1400 67.6 61 53.8 2.8 S | 182 6.1 S | 183 0.00 0.00 40.8 68.5
11/29/21 - 1300 66.2 63 53.2 2.9 S | 172 6.1 SSW | 200 0.00 0.00 40.8 67.4
11/29/21 - 1200 63.9 64 51.4 2.1 SE | 140 5.8 SE | 130 0.00 0.00 40.8 65.5
11/29/21 - 1100 60.5 70 50.6 1.5 WNW | 299 4.8 ESE | 104 0.00 0.00 40.8 62.3
11/29/21 - 1000 55.0 81 49.4 2.0 NW | 304 4.4 WNW | 300 0.00 0.00 40.8 57.5
11/29/21 - 0900 51.4 96 50.4 1.0 NW | 310 4.4 WNW | 299 0.00 0.00 40.8 54.0
11/29/21 - 0800 45.1 100 45.0 0.4 NW | 318 0.4 NW | 307 0.00 0.00 40.8 49.1
11/29/21 - 0700 43.7 100 43.6 1.1 NW | 315 3.4 NW | 315 0.00 0.00 40.8 49.1
11/29/21 - 0600 41.6 99 41.4 0.7 NW | 321 2.7 NW | 323 0.00 0.00 40.8 49.1
11/29/21 - 0500 43.1 98 42.7 0.4 NW | 320 0.4 NW | 312 0.00 0.00 40.9 49.1
11/29/21 - 0400 44.8 98 44.4 0.7 NW | 311 3.1 NW | 312 0.00 0.00 44.3 49.1
11/29/21 - 0300 46.2 97 45.4 0.8 NW | 322 3.1 NW | 320 0.00 0.00 44.8 49.1
11/29/21 - 0200 47.6 97 46.9 1.3 NW | 318 4.8 WNW | 302 0.00 0.00 46.8 49.1
11/29/21 - 0100 47.7 96 46.5 1.4 NW | 311 3.8 NW | 312 0.00 0.00 46.8 49.1
11/29/21 - 0000 48.6 97 47.8 2.5 NW | 321 5.1 NNW | 331 0.00 0.00 38.5 70.8
11/28/21 - 2300 48.2 94 46.7 0.7 NW | 310 2.7 NW | 307 0.00 0.00 38.5 70.8
11/28/21 - 2200 49.4 94 47.8 1.2 NW | 313 4.1 WNW | 302 0.00 0.00 38.5 70.8
11/28/21 - 2100 49.8 94 48.2 2.0 NNW | 331 4.1 NNW | 328 0.00 0.00 38.5 70.8
11/28/21 - 2000 50.0 93 48.0 0.7 ESE | 116 3.1 ESE | 116 0.00 0.00 38.5 70.8
11/28/21 - 1900 51.3 89 48.2 0.4 ESE | 116 1.7 ESE | 116 0.00 0.00 38.5 70.8
11/28/21 - 1800 56.3 79 49.8 0.7 SSE | 150 2.4 ESE | 116 0.00 0.00 38.5 70.8
11/28/21 - 1700 63.2 64 50.6 2.1 SSE | 163 6.8 SSE | 150 0.00 0.00 38.5 70.8
11/28/21 - 1600 69.0 52 50.6 2.6 E | 79 6.1 SSE | 155 0.00 0.00 38.5 70.8
11/28/21 - 1500 69.8 50 50.1 1.8 ENE | 59 5.4 NNW | 344 0.00 0.00 38.5 70.8
11/28/21 - 1400 68.1 51 49.3 2.9 E | 80 9.1 ESE | 115 0.00 0.00 38.5 69.4
11/28/21 - 1300 66.6 52 48.7 3.9 E | 82 7.8 E | 79 0.00 0.00 38.5 67.4
11/28/21 - 1200 63.8 59 49.4 3.0 SSE | 151 10.5 E | 100 0.00 0.00 38.5 66.1
11/28/21 - 1100 58.0 71 48.8 3.2 SW | 218 6.4 WSW | 241 0.00 0.00 38.5 60.8
11/28/21 - 1000 54.4 78 47.8 1.3 WNW | 295 3.4 WNW | 298 0.00 0.00 38.5 56.0
11/28/21 - 0900 48.7 97 47.9 0.4 NW | 314 2.1 NW | 313 0.00 0.00 38.5 52.2
11/28/21 - 0800 40.4 99 40.2 0.4 NW | 314 1.4 NW | 315 0.00 0.00 38.5 46.4
11/28/21 - 0700 39.7 98 39.3 0.4 NW | 309 0.4 NW | 314 0.00 0.00 39.1 46.4
11/28/21 - 0600 40.3 98 39.7 0.4 NW | 314 0.4 NW | 312 0.00 0.00 39.8 46.4
11/28/21 - 0500 40.9 97 40.1 0.4 NW | 312 0.4 NW | 312 0.00 0.00 40.2 46.4
11/28/21 - 0400 42.6 96 41.5 0.4 NW | 315 0.4 NW | 323 0.00 0.00 41.2 46.4
11/28/21 - 0300 44.2 94 42.7 0.5 NNW | 332 2.4 NW | 317 0.00 0.00 43.5 46.4
11/28/21 - 0200 45.6 96 44.5 1.5 NW | 322 4.1 NNW | 332 0.00 0.00 44.7 46.4
11/28/21 - 0100 45.2 94 43.7 0.9 NW | 317 4.1 NW | 311 0.00 0.00 44.9 45.4
11/28/21 - 0000 46.0 93 44.0 0.6 N | 2 3.4 WNW | 300 0.00 0.00 37.9 67.5
11/27/21 - 2300 47.3 90 44.6 0.4 WNW | 301 3.1 WNW | 302 0.00 0.00 37.9 67.5
11/27/21 - 2200 49.7 87 46.1 1.8 NW | 313 4.4 NW | 312 0.00 0.00 37.9 67.5
11/27/21 - 2100 49.6 88 46.3 2.5 NW | 315 5.1 WNW | 301 0.00 0.00 37.9 67.5
11/27/21 - 2000 49.9 88 46.4 1.6 NW | 316 4.4 NW | 317 0.00 0.00 37.9 67.5
11/27/21 - 1900 51.1 86 47.3 1.0 NW | 326 3.4 NW | 316 0.00 0.00 37.9 67.5
11/27/21 - 1800 54.1 78 47.1 0.8 ESE | 104 3.4 N | 349 0.00 0.00 37.9 67.5
11/27/21 - 1700 62.4 58 47.2 0.5 SE | 129 2.4 SE | 128 0.00 0.00 37.9 67.5
11/27/21 - 1600 66.1 49 46.7 2.0 SE | 129 4.4 ESE | 107 0.00 0.00 37.9 67.5
11/27/21 - 1500 66.6 48 46.2 3.1 SE | 142 6.4 SSE | 155 0.00 0.00 37.9 67.3
11/27/21 - 1400 66.4 47 45.5 1.9 ESE | 121 5.4 SE | 132 0.00 0.00 37.9 67.3
11/27/21 - 1300 65.0 47 44.4 2.8 ESE | 108 6.8 ESE | 115 0.00 0.00 37.9 66.3
11/27/21 - 1200 62.9 52 44.9 3.2 SE | 144 7.4 ESE | 110 0.00 0.00 37.9 64.4
11/27/21 - 1100 58.8 61 45.2 2.7 SW | 225 6.4 SSW | 195 0.00 0.00 37.9 60.8
11/27/21 - 1000 56.3 62 43.4 0.5 NW | 319 2.7 WNW | 300 0.00 0.00 37.9 58.0
11/27/21 - 0900 49.6 83 44.6 0.4 NW | 314 1.7 NW | 309 0.00 0.00 37.9 53.0
11/27/21 - 0800 40.8 98 40.2 0.7 NNW | 333 2.7 NW | 326 0.00 0.00 37.9 45.8
11/27/21 - 0700 38.1 95 36.9 0.5 NNW | 333 2.7 NNW | 344 0.00 0.00 37.9 43.5
11/27/21 - 0600 39.8 95 38.4 0.4 NNW | 347 1.7 NW | 313 0.00 0.00 38.8 43.5
11/27/21 - 0500 40.3 95 39.0 1.2 NNW | 340 4.4 NNW | 342 0.00 0.00 39.5 43.5
11/27/21 - 0400 41.1 94 39.6 0.6 NNW | 332 2.7 NNW | 334 0.00 0.00 39.8 43.5
11/27/21 - 0300 41.6 94 40.1 1.1 NNW | 327 2.7 NNW | 329 0.00 0.00 40.9 43.5
11/27/21 - 0200 42.0 93 40.3 0.5 NNW | 334 2.7 NNW | 334 0.00 0.00 41.3 43.5
11/27/21 - 0100 43.1 93 41.2 0.5 NNW | 334 2.7 NNW | 335 0.00 0.00 42.5 43.5
11/27/21 - 0000 43.2 92 41.0 0.8 WNW | 299 3.1 NNW | 335 0.00 0.00 36.1 67.7
11/26/21 - 2300 44.2 91 41.6 0.9 WNW | 293 3.4 WNW | 291 0.00 0.00 36.1 67.7
11/26/21 - 2200 45.8 89 42.9 1.0 WNW | 298 3.1 WNW | 289 0.00 0.00 36.1 67.7
11/26/21 - 2100 47.1 91 44.5 2.4 NW | 309 4.1 NNW | 338 0.00 0.00 36.1 67.7
11/26/21 - 2000 45.8 91 43.2 0.5 SW | 218 2.7 SW | 218 0.00 0.00 36.1 67.7
11/26/21 - 1900 48.3 85 44.1 0.4 SW | 218 0.4 SW | 218 0.00 0.00 36.1 67.7
11/26/21 - 1800 54.3 68 43.9 0.4 SW | 218 1.4 SW | 218 0.00 0.00 36.1 67.7
11/26/21 - 1700 59.4 57 44.2 0.9 SSW | 194 3.8 SSW | 212 0.00 0.00 36.1 67.7
11/26/21 - 1600 64.3 47 43.5 2.0 S | 187 4.1 S | 190 0.00 0.00 36.1 67.7
11/26/21 - 1500 66.5 42 42.5 1.7 S | 184 4.1 SSW | 212 0.00 0.00 36.1 67.7
11/26/21 - 1400 65.2 44 42.9 2.1 S | 185 5.8 S | 190 0.00 0.00 36.1 65.9
11/26/21 - 1300 62.7 48 42.7 2.5 S | 174 5.4 ESE | 120 0.00 0.00 36.1 64.0
11/26/21 - 1200 60.1 52 42.5 2.5 S | 173 6.1 SSE | 157 0.00 0.00 36.1 61.7
11/26/21 - 1100 57.6 55 41.7 1.3 S | 176 4.1 SSE | 147 0.00 0.00 36.1 59.8
11/26/21 - 1000 54.0 64 42.0 1.6 SSE | 149 4.4 SSE | 165 0.00 0.00 36.1 55.1
11/26/21 - 0900 46.3 83 41.2 0.4 NE | 54 2.7 NE | 54 0.00 0.00 36.1 52.2
11/26/21 - 0800 36.7 94 35.2 0.4 NE | 55 3.1 NE | 53 0.00 0.00 36.1 43.1
11/26/21 - 0700 36.8 93 35.1 0.4 NW | 310 2.7 NW | 318 0.00 0.00 36.1 43.1
11/26/21 - 0600 38.0 93 36.3 1.0 WNW | 300 5.4 WSW | 256 0.00 0.00 37.4 43.1
11/26/21 - 0500 39.5 94 37.8 1.1 NW | 320 3.8 W | 281 0.00 0.00 38.4 43.1
11/26/21 - 0400 40.2 93 38.2 0.4 NW | 312 0.4 NW | 311 0.00 0.00 39.5 43.1
11/26/21 - 0300 40.8 92 38.7 0.6 NNW | 346 3.1 N | 0 0.00 0.00 40.4 43.1
11/26/21 - 0200 40.9 91 38.5 0.6 NNE | 28 3.1 NNW | 343 0.00 0.00 40.5 43.1
11/26/21 - 0100 42.0 88 38.6 0.6 NE | 56 3.1 WNW | 302 0.00 0.00 40.9 43.1
11/26/21 - 0000 43.5 86 39.7 1.6 NW | 316 4.8 NNW | 342 0.00 0.00 30.6 64.8
11/25/21 - 2300 43.6 88 40.2 1.7 NW | 323 5.1 NNW | 330 0.00 0.00 30.6 64.8
11/25/21 - 2200 42.6 90 39.8 1.3 NW | 325 4.1 NW | 309 0.00 0.00 30.6 64.8
11/25/21 - 2100 41.8 91 39.2 0.4 NW | 309 3.1 NW | 322 0.00 0.00 30.6 64.8
11/25/21 - 2000 42.2 91 39.7 0.9 NNW | 332 3.8 NNW | 342 0.00 0.00 30.6 64.8
11/25/21 - 1900 45.3 88 41.9 1.0 WSW | 249 3.8 NNW | 340 0.00 0.00 30.6 64.8
11/25/21 - 1800 50.2 77 43.2 0.4 SW | 215 0.4 SSW | 200 0.00 0.00 30.6 64.8
11/25/21 - 1700 59.5 43 36.9 2.7 E | 97 7.4 ENE | 75 0.00 0.00 30.6 64.8
11/25/21 - 1600 63.1 36 35.5 4.2 ENE | 71 8.4 E | 86 0.00 0.00 30.6 64.8
11/25/21 - 1500 64.3 33 34.4 4.7 ENE | 75 9.1 ENE | 63 0.00 0.00 30.6 64.8
11/25/21 - 1400 63.2 33 33.2 5.8 ENE | 78 11.1 E | 85 0.00 0.00 30.6 64.1
11/25/21 - 1300 60.9 41 37.1 6.6 E | 89 12.1 ESE | 112 0.00 0.00 30.6 62.5
11/25/21 - 1200 60.0 41 36.0 6.1 ENE | 76 12.1 ENE | 70 0.00 0.00 30.6 60.7
11/25/21 - 1100 56.9 51 39.0 5.3 ENE | 77 10.1 E | 87 0.00 0.00 30.6 59.3
11/25/21 - 1000 50.7 68 40.6 1.3 N | 350 7.4 ENE | 72 0.00 0.00 30.6 54.7
11/25/21 - 0900 43.3 86 39.2 0.4 NNW | 340 1.7 N | 0 0.00 0.00 30.6 48.5
11/25/21 - 0800 33.0 96 32.0 0.8 NNW | 342 3.8 N | 353 0.00 0.00 30.6 37.9
11/25/21 - 0700 31.5 95 30.2 0.4 NNW | 337 1.4 NNW | 337 0.00 0.00 31.1 36.8
11/25/21 - 0600 32.8 95 31.5 0.6 NNW | 342 3.1 NNW | 338 0.00 0.00 31.6 36.8
11/25/21 - 0500 33.0 95 31.7 0.6 N | 356 3.1 NNW | 347 0.00 0.00 31.6 36.8
11/25/21 - 0400 32.3 94 30.6 0.7 E | 80 3.4 ESE | 122 0.00 0.00 31.6 36.8
11/25/21 - 0300 33.7 94 32.0 0.8 SE | 133 4.8 WNW | 291 0.00 0.00 32.9 36.8
11/25/21 - 0200 33.8 93 31.9 0.5 N | 349 2.7 N | 354 0.00 0.00 33.3 36.8
11/25/21 - 0100 34.8 90 32.3 0.6 NW | 317 3.4 NW | 310 0.00 0.00 33.9 36.8
11/25/21 - 0000 35.8 91 33.4 1.2 NW | 322 4.4 NW | 312 0.00 0.00 34.9 68.6
11/24/21 - 2300 37.0 89 34.2 0.6 NNW | 327 2.4 NW | 316 0.00 0.00 36.2 68.6
11/24/21 - 2200 39.1 87 35.7 1.1 NNW | 328 3.1 NNW | 334 0.00 0.00 38.0 68.6
11/24/21 - 2100 40.0 87 36.5 0.9 NNW | 330 3.8 NW | 308 0.00 0.00 39.0 68.6
11/24/21 - 2000 41.5 85 37.3 0.8 NW | 310 3.4 NNW | 330 0.00 0.00 39.0 68.6
11/24/21 - 1900 43.2 85 38.9 0.6 N | 353 3.8 NNW | 330 0.00 0.00 39.0 68.6
11/24/21 - 1800 48.6 72 39.9 0.5 NNE | 25 2.1 WSW | 238 0.00 0.00 39.0 68.6
11/24/21 - 1700 60.1 46 39.1 0.5 SSW | 207 2.4 S | 177 0.00 0.00 39.0 68.6
11/24/21 - 1600 66.5 32 35.6 2.4 S | 191 5.8 S | 176 0.00 0.00 39.0 68.6
11/24/21 - 1500 67.9 26 32.0 3.1 SSW | 195 6.1 SSW | 199 0.00 0.00 39.0 68.6
11/24/21 - 1400 65.2 28 31.2 3.4 SSW | 196 7.4 SSW | 212 0.00 0.00 39.0 66.8
11/24/21 - 1300 63.4 30 31.0 3.2 S | 186 7.1 SSW | 197 0.00 0.00 39.0 64.4
11/24/21 - 1200 61.8 33 32.6 3.7 S | 186 7.1 SSW | 205 0.00 0.00 39.0 62.4
11/24/21 - 1100 60.2 36 33.2 3.3 SE | 146 7.1 ESE | 109 0.00 0.00 39.0 61.4
11/24/21 - 1000 57.7 41 33.9 1.4 E | 84 5.1 SE | 127 0.00 0.00 39.0 59.4
11/24/21 - 0900 51.3 52 34.2 0.9 NE | 39 4.4 NNE | 31 0.00 0.00 39.0 58.9
11/24/21 - 0800 41.1 75 33.9 0.9 ENE | 60 4.4 ENE | 70 0.00 0.00 39.0 58.9
11/24/21 - 0700 43.0 68 32.9 2.1 ENE | 57 6.4 ENE | 73 0.00 0.00 39.4 58.9
11/24/21 - 0600 54.0 30 22.9 5.9 NNW | 332 14.2 NW | 306 0.00 0.00 48.6 58.9
11/24/21 - 0500 55.3 25 20.2 6.2 NNW | 330 13.8 NNW | 333 0.00 0.00 54.2 58.9
11/24/21 - 0400 55.3 27 21.5 4.9 NNW | 337 13.8 N | 9 0.00 0.00 54.2 58.9
11/24/21 - 0300 56.7 26 22.0 6.0 NW | 311 15.2 NW | 310 0.00 0.00 55.8 58.9
11/24/21 - 0200 57.8 26 23.2 6.5 W | 280 18.2 WNW | 283 0.00 0.00 57.2 58.9
Max 69.8 100 54.8 6.6 - 18.2 - 0.00 0.00 57.2 70.8
Avg 50.8 77 42.2 1.6 - 4.5 - 0.00 - - -
Min 31.5 25 20.2 0.4 - 0.4 - 0.00 0.00 30.6 36.8
Total - - - - - - - 0.00 - - -
Tip: Bookmark this page for easy future reference